Time;durP1;ratioP1;P1;durP2;ratioP2;P2;SDS_P1;SDS_P2;PMS_P1;PMS_P2;Temp;Humidity;BMP_temperature;BMP_pressure;BME280_temperature;BME280_humidity;BME280_pressure;Samples;Min_cycle;Max_cycle;Signal;HPM_P1;HPM_P2
2022/03/26 00:01:41;;;;;;;21.42;15.23;;;14.40;65.20;;;;;;4998176;28;20031;-72
2022/03/26 00:04:07;;;;;;;23.55;14.50;;;14.40;65.20;;;;;;5003788;28;21334;-72
2022/03/26 00:06:33;;;;;;;21.33;14.75;;;14.40;65.20;;;;;;5014850;28;20029;-71
2022/03/26 00:08:58;;;;;;;23.15;15.05;;;14.40;65.10;;;;;;5025231;28;20022;-72
2022/03/26 00:11:24;;;;;;;22.88;15.00;;;14.40;65.10;;;;;;5017486;28;20029;-72
2022/03/26 00:13:49;;;;;;;23.27;15.52;;;14.40;65.00;;;;;;4989209;28;20025;-71
2022/03/26 00:16:15;;;;;;;26.83;15.52;;;14.40;64.90;;;;;;5006897;28;20069;-73
2022/03/26 00:18:41;;;;;;;23.10;15.07;;;14.40;64.90;;;;;;4988637;28;20022;-71
2022/03/26 00:21:07;;;;;;;24.05;15.85;;;14.30;64.90;;;;;;5006999;28;20395;-72
2022/03/26 00:23:32;;;;;;;22.70;15.30;;;14.30;64.80;;;;;;5017379;28;20029;-72
2022/03/26 00:25:58;;;;;;;22.45;14.73;;;14.30;64.80;;;;;;5012770;28;20049;-72
2022/03/26 00:28:24;;;;;;;21.13;14.23;;;14.30;65.20;;;;;;4988400;28;20402;-73
2022/03/26 00:30:50;;;;;;;22.52;14.38;;;14.30;64.70;;;;;;5003462;28;20030;-72
2022/03/26 00:33:16;;;;;;;24.17;14.38;;;14.30;64.80;;;;;;5024833;28;20071;-71
2022/03/26 00:35:42;;;;;;;22.30;14.63;;;14.30;64.70;;;;;;5017102;28;20049;-72
2022/03/26 00:38:08;;;;;;;23.77;14.38;;;14.30;64.70;;;;;;5024456;28;20452;-72
2022/03/26 00:40:33;;;;;;;21.80;14.65;;;14.30;64.60;;;;;;5007222;28;20028;-73
2022/03/26 00:42:59;;;;;;;23.42;14.77;;;14.30;64.70;;;;;;5002868;28;20087;-73
2022/03/26 00:45:26;;;;;;;21.23;14.43;;;14.30;64.60;;;;;;5006124;28;20053;-72
2022/03/26 00:47:52;;;;;;;19.65;14.75;;;14.20;64.50;;;;;;4994576;28;20584;-73
2022/03/26 00:50:17;;;;;;;21.27;14.95;;;14.30;64.50;;;;;;5024731;28;20037;-72
2022/03/26 00:52:43;;;;;;;21.17;15.25;;;14.20;64.50;;;;;;5007040;28;20470;-73
2022/03/26 00:55:09;;;;;;;22.15;15.13;;;14.20;64.60;;;;;;5000128;28;20030;-72
2022/03/26 00:57:36;;;;;;;21.90;14.95;;;14.30;64.60;;;;;;4988117;28;20506;-73
2022/03/26 01:00:02;;;;;;;21.83;14.60;;;14.20;64.60;;;;;;5006060;28;20022;-72
2022/03/26 01:02:28;;;;;;;20.63;15.25;;;14.20;64.60;;;;;;4988659;28;20052;-72
2022/03/26 01:04:53;;;;;;;22.15;14.30;;;14.20;64.60;;;;;;5004764;28;20021;-73
2022/03/26 01:07:19;;;;;;;22.60;14.88;;;14.20;64.60;;;;;;5006448;28;20065;-74
2022/03/26 01:09:44;;;;;;;21.13;15.02;;;14.20;64.60;;;;;;4995377;28;20120;-72
2022/03/26 01:12:10;;;;;;;20.35;15.00;;;14.20;64.60;;;;;;5017468;28;20045;-72
2022/03/26 01:14:36;;;;;;;22.80;15.25;;;14.20;64.60;;;;;;4989320;28;20395;-72
2022/03/26 01:17:01;;;;;;;22.85;15.43;;;14.20;64.70;;;;;;5006247;28;20025;-73
2022/03/26 01:19:27;;;;;;;22.13;15.32;;;14.20;64.70;;;;;;5002534;28;20041;-72
2022/03/26 01:21:53;;;;;;;26.65;15.93;;;14.20;64.60;;;;;;5017877;28;20030;-72
2022/03/26 01:24:18;;;;;;;23.50;15.35;;;14.20;64.70;;;;;;4988046;28;20125;-72
2022/03/26 01:26:44;;;;;;;22.90;15.25;;;14.20;64.70;;;;;;5006267;28;20104;-74
2022/03/26 01:29:09;;;;;;;23.98;16.58;;;14.20;64.60;;;;;;4996337;28;20057;-71
2022/03/26 01:31:37;;;;;;;25.55;16.73;;;14.20;64.60;;;;;;5005547;28;20080;-73
2022/03/26 01:34:02;;;;;;;25.58;15.82;;;14.20;64.70;;;;;;4987981;28;20029;-73
2022/03/26 01:36:28;;;;;;;22.23;16.13;;;14.10;64.60;;;;;;4987702;28;20033;-72
2022/03/26 01:38:54;;;;;;;24.00;16.05;;;14.10;64.60;;;;;;5005242;28;20024;-72
2022/03/26 01:41:20;;;;;;;23.45;16.02;;;14.10;64.70;;;;;;5005402;28;20033;-72
2022/03/26 01:43:46;;;;;;;24.95;15.98;;;14.20;64.70;;;;;;5005251;28;20399;-73
2022/03/26 01:46:12;;;;;;;23.73;15.10;;;14.10;64.70;;;;;;5023707;28;20036;-72
2022/03/26 01:48:39;;;;;;;25.23;16.33;;;14.10;64.70;;;;;;5007411;28;20033;-72
2022/03/26 01:51:14;;;;;;;24.63;16.55;;;14.10;64.80;;;;;;5007722;28;20029;-72
2022/03/26 01:53:41;;;;;;;24.02;16.10;;;14.10;64.70;;;;;;5025539;28;20068;-71
2022/03/26 01:56:07;;;;;;;21.67;16.23;;;14.10;64.70;;;;;;5025588;28;20029;-72
2022/03/26 01:58:33;;;;;;;22.80;16.17;;;14.00;64.60;;;;;;5025014;28;20494;-71
2022/03/26 02:00:59;;;;;;;24.83;16.08;;;14.10;64.60;;;;;;5007597;28;20045;-73
2022/03/26 02:03:24;;;;;;;24.05;15.43;;;14.10;64.70;;;;;;5025418;28;20497;-72
2022/03/26 02:05:52;;;;;;;25.80;17.30;;;14.10;65.00;;;;;;5025556;28;20036;-73
2022/03/26 02:08:18;;;;;;;23.75;16.83;;;14.10;64.80;;;;;;5024962;28;20132;-72
2022/03/26 02:10:43;;;;;;;23.98;16.60;;;14.10;64.80;;;;;;5007871;28;20104;-74
2022/03/26 02:13:09;;;;;;;24.33;16.80;;;14.10;65.30;;;;;;5025432;28;20037;-71
2022/03/26 02:15:37;;;;;;;23.98;16.00;;;14.10;64.70;;;;;;5025670;28;20037;-73
2022/03/26 02:18:03;;;;;;;24.33;16.90;;;14.10;64.70;;;;;;4994156;28;20038;-73
2022/03/26 02:20:30;;;;;;;22.20;15.43;;;14.10;64.80;;;;;;4988224;28;20029;-73
2022/03/26 02:22:56;;;;;;;24.02;16.45;;;14.10;64.80;;;;;;5005015;28;20104;-72
2022/03/26 02:25:22;;;;;;;24.15;17.30;;;14.10;64.80;;;;;;4988004;28;20464;-73
2022/03/26 02:27:47;;;;;;;24.83;16.48;;;14.10;64.90;;;;;;5004955;28;20038;-72
2022/03/26 02:30:14;;;;;;;23.02;15.85;;;14.10;64.90;;;;;;5005501;28;20044;-72
2022/03/26 02:32:39;;;;;;;25.50;16.75;;;14.10;64.90;;;;;;5005663;28;20381;-73
2022/03/26 02:35:06;;;;;;;23.70;16.17;;;14.00;64.80;;;;;;5008868;28;20036;-73
2022/03/26 02:37:32;;;;;;;22.10;16.20;;;14.00;64.80;;;;;;5008826;28;20055;-73
2022/03/26 02:39:59;;;;;;;22.08;16.38;;;14.10;64.80;;;;;;5009476;28;20038;-74
2022/03/26 02:42:25;;;;;;;24.08;16.60;;;14.00;64.80;;;;;;5009332;28;20581;-73
2022/03/26 02:44:51;;;;;;;25.63;17.45;;;14.00;64.80;;;;;;5009254;28;20030;-71
2022/03/26 02:47:17;;;;;;;25.15;16.80;;;14.00;64.80;;;;;;4991497;28;20041;-73
2022/03/26 02:49:42;;;;;;;23.90;17.25;;;14.00;64.80;;;;;;4991389;28;20183;-72
2022/03/26 02:52:08;;;;;;;25.73;17.20;;;14.00;64.90;;;;;;4991592;28;20129;-73
2022/03/26 02:54:34;;;;;;;25.75;17.00;;;14.00;64.90;;;;;;5009322;28;20076;-73
2022/03/26 02:56:59;;;;;;;25.15;16.80;;;14.00;64.80;;;;;;4998155;28;20552;-72
2022/03/26 02:59:25;;;;;;;23.77;16.55;;;14.00;64.90;;;;;;5010693;28;20478;-73
2022/03/26 03:01:53;;;;;;;26.00;17.70;;;14.00;64.80;;;;;;5010478;28;20013;-76
2022/03/26 03:04:21;;;;;;;25.95;16.70;;;13.90;64.80;;;;;;5028496;28;20030;-73
2022/03/26 03:06:47;;;;;;;23.30;16.75;;;14.00;64.90;;;;;;5009965;28;20568;-73
2022/03/26 03:09:12;;;;;;;26.15;16.75;;;14.00;64.90;;;;;;5010454;28;20128;-72
2022/03/26 03:11:38;;;;;;;25.05;16.55;;;14.00;64.90;;;;;;5027651;28;20175;-73
2022/03/26 03:14:06;;;;;;;23.13;17.30;;;14.00;64.90;;;;;;5027263;28;20100;-73
2022/03/26 03:16:32;;;;;;;26.23;17.00;;;14.00;65.00;;;;;;5010095;28;20148;-73
2022/03/26 03:18:58;;;;;;;26.05;16.60;;;14.00;65.00;;;;;;5028254;28;20022;-72
2022/03/26 03:21:24;;;;;;;23.38;17.10;;;14.00;65.00;;;;;;5027982;28;20022;-72
2022/03/26 03:23:49;;;;;;;26.95;16.98;;;13.90;64.90;;;;;;5009485;28;20025;-72
2022/03/26 03:26:15;;;;;;;23.75;16.38;;;14.00;65.00;;;;;;5027341;28;20494;-73
2022/03/26 03:28:42;;;;;;;23.92;16.65;;;13.90;64.90;;;;;;5027241;28;20021;-72
2022/03/26 03:31:07;;;;;;;26.30;17.02;;;13.90;64.90;;;;;;5027727;28;20033;-73
2022/03/26 03:33:33;;;;;;;24.38;16.63;;;13.90;64.90;;;;;;5027963;28;20030;-71
2022/03/26 03:35:58;;;;;;;24.42;16.50;;;14.00;64.90;;;;;;5027670;28;20025;-73
2022/03/26 03:38:25;;;;;;;24.80;16.45;;;14.00;65.00;;;;;;5009316;28;20049;-73
2022/03/26 03:40:51;;;;;;;24.13;17.30;;;13.90;64.90;;;;;;5027621;28;20029;-72
2022/03/26 03:43:17;;;;;;;25.63;17.30;;;13.90;64.90;;;;;;5024273;28;20422;-72
2022/03/26 03:45:43;;;;;;;26.40;17.08;;;13.90;64.90;;;;;;5025918;28;20028;-74
2022/03/26 03:48:08;;;;;;;25.10;17.00;;;13.90;65.20;;;;;;5009187;28;20029;-71
2022/03/26 03:50:34;;;;;;;24.30;16.98;;;13.90;64.90;;;;;;5009726;28;20056;-72
2022/03/26 03:53:00;;;;;;;27.15;18.40;;;13.90;64.90;;;;;;5009646;28;20025;-72
2022/03/26 03:55:25;;;;;;;25.67;17.25;;;13.90;64.90;;;;;;5027207;28;20065;-74
2022/03/26 03:57:51;;;;;;;24.83;17.42;;;13.90;64.80;;;;;;5009314;28;20030;-72
2022/03/26 04:00:16;;;;;;;23.92;16.35;;;13.90;64.90;;;;;;5009701;28;20052;-73
2022/03/26 04:02:43;;;;;;;25.55;17.17;;;13.90;64.90;;;;;;5009297;28;20076;-72
2022/03/26 04:05:10;;;;;;;24.42;17.00;;;13.90;64.80;;;;;;5009583;28;20041;-73
2022/03/26 04:07:37;;;;;;;25.45;18.00;;;13.90;64.80;;;;;;5026664;28;20079;-71
2022/03/26 04:10:04;;;;;;;26.92;18.33;;;13.90;64.80;;;;;;5009602;28;20025;-74
2022/03/26 04:12:30;;;;;;;27.50;18.02;;;13.90;64.80;;;;;;5009312;28;20040;-73
2022/03/26 04:14:55;;;;;;;24.15;17.25;;;13.90;64.80;;;;;;5027285;28;20029;-73
2022/03/26 04:17:21;;;;;;;26.38;17.38;;;13.90;64.70;;;;;;5008971;28;20054;-72
2022/03/26 04:19:47;;;;;;;28.40;17.98;;;13.90;64.80;;;;;;5027180;28;20029;-73
2022/03/26 04:22:12;;;;;;;24.80;16.80;;;13.90;64.70;;;;;;5026184;28;20495;-72
2022/03/26 04:24:40;;;;;;;26.00;17.30;;;13.90;64.70;;;;;;5027236;28;20048;-72
2022/03/26 04:27:06;;;;;;;24.40;17.88;;;13.90;64.80;;;;;;5026726;28;20022;-72
2022/03/26 04:29:32;;;;;;;24.38;17.63;;;13.80;64.70;;;;;;5027193;28;20029;-73
2022/03/26 04:31:57;;;;;;;25.15;17.80;;;13.80;64.80;;;;;;5025689;28;20017;-72
2022/03/26 04:34:23;;;;;;;25.88;17.80;;;13.90;64.80;;;;;;5009470;28;20172;-73
2022/03/26 04:36:49;;;;;;;26.20;17.55;;;13.90;64.70;;;;;;5008628;28;20044;-70
2022/03/26 04:39:14;;;;;;;25.10;17.42;;;13.80;64.70;;;;;;5026902;28;20024;-73
2022/03/26 04:41:40;;;;;;;25.38;17.17;;;13.90;64.80;;;;;;5009095;28;20382;-71
2022/03/26 04:44:06;;;;;;;26.73;18.70;;;13.80;64.70;;;;;;5027181;28;20395;-72
2022/03/26 04:46:32;;;;;;;23.35;17.13;;;13.80;64.70;;;;;;5008933;28;20025;-72
2022/03/26 04:48:58;;;;;;;27.77;18.75;;;13.80;64.70;;;;;;5026633;28;20104;-73
2022/03/26 04:51:24;;;;;;;25.52;18.23;;;13.80;64.80;;;;;;5026771;28;20530;-73
2022/03/26 04:53:49;;;;;;;26.40;18.48;;;13.80;64.90;;;;;;5026659;28;20028;-73
2022/03/26 04:56:15;;;;;;;26.83;18.55;;;13.80;64.90;;;;;;5008660;28;20026;-73
2022/03/26 04:58:40;;;;;;;27.95;19.30;;;13.80;65.00;;;;;;5007007;28;20140;-73
2022/03/26 05:01:07;;;;;;;28.67;19.15;;;13.80;64.90;;;;;;5026015;28;20037;-72
2022/03/26 05:03:32;;;;;;;28.35;18.80;;;13.80;64.80;;;;;;5008675;28;20480;-72
2022/03/26 05:05:58;;;;;;;25.83;18.02;;;13.80;64.80;;;;;;5008523;28;20026;-73
2022/03/26 05:08:23;;;;;;;26.08;18.60;;;13.80;64.80;;;;;;5025522;28;20029;-72
2022/03/26 05:10:49;;;;;;;27.55;18.80;;;13.80;64.80;;;;;;5025622;28;20103;-71
2022/03/26 05:13:15;;;;;;;28.48;19.92;;;13.80;64.80;;;;;;5025461;28;20414;-72
2022/03/26 05:15:40;;;;;;;28.98;18.95;;;13.80;64.80;;;;;;5007759;28;20140;-72
2022/03/26 05:18:06;;;;;;;28.50;18.92;;;13.80;64.80;;;;;;5007235;28;20498;-72
2022/03/26 05:20:31;;;;;;;27.60;19.27;;;13.80;64.70;;;;;;5007684;28;20029;-72
2022/03/26 05:22:57;;;;;;;28.60;19.33;;;13.80;64.70;;;;;;5007172;28;20033;-73
2022/03/26 05:25:22;;;;;;;29.70;19.38;;;13.80;64.80;;;;;;5008073;28;20048;-73
2022/03/26 05:27:51;;;;;;;28.35;20.38;;;13.80;64.80;;;;;;5007421;28;20037;-73
2022/03/26 05:30:18;;;;;;;27.48;19.58;;;13.80;64.70;;;;;;5025302;28;20767;-72
2022/03/26 05:32:45;;;;;;;28.40;20.88;;;13.80;64.60;;;;;;5024658;28;20060;-71
2022/03/26 05:35:13;;;;;;;29.73;20.95;;;13.80;64.70;;;;;;5008075;28;20040;-73
2022/03/26 05:37:40;;;;;;;30.35;20.42;;;13.80;64.70;;;;;;5007646;28;20037;-72
2022/03/26 05:40:07;;;;;;;32.35;21.13;;;13.80;64.70;;;;;;5025470;28;20013;-71
2022/03/26 05:42:33;;;;;;;30.25;21.35;;;13.80;64.70;;;;;;5024275;28;20021;-72
2022/03/26 05:44:59;;;;;;;32.08;21.85;;;13.80;64.70;;;;;;5030498;28;20021;-72
2022/03/26 05:47:24;;;;;;;33.35;21.20;;;13.80;64.70;;;;;;5036485;28;20024;-73
2022/03/26 05:49:50;;;;;;;32.53;21.60;;;13.80;64.70;;;;;;5000673;28;20065;-72
2022/03/26 05:52:16;;;;;;;33.08;22.58;;;13.80;64.70;;;;;;5014370;28;20107;-73
2022/03/26 05:54:42;;;;;;;32.63;22.98;;;13.70;64.60;;;;;;5025254;28;20071;-71
2022/03/26 05:57:07;;;;;;;31.13;21.85;;;13.80;64.70;;;;;;5016330;28;20033;-73
2022/03/26 05:59:33;;;;;;;33.10;23.08;;;13.80;64.60;;;;;;5041360;28;20532;-72
2022/03/26 06:01:59;;;;;;;30.77;22.45;;;13.80;64.60;;;;;;5029374;28;20438;-73
2022/03/26 06:04:24;;;;;;;32.92;23.55;;;13.80;64.60;;;;;;5025312;28;20025;-72
2022/03/26 06:06:50;;;;;;;35.15;23.80;;;13.80;64.60;;;;;;5025003;28;20037;-74
2022/03/26 06:09:16;;;;;;;33.53;22.85;;;13.80;64.60;;;;;;4999088;28;20026;-71
2022/03/26 06:11:41;;;;;;;34.58;24.20;;;13.70;64.50;;;;;;5005695;28;20534;-72
2022/03/26 06:14:07;;;;;;;34.53;24.33;;;13.90;64.60;;;;;;5022399;28;20490;-73
2022/03/26 06:16:34;;;;;;;34.05;23.60;;;13.80;64.80;;;;;;5024785;28;20044;-73
2022/03/26 06:19:00;;;;;;;34.05;24.10;;;13.80;64.60;;;;;;5025158;28;20025;-72
2022/03/26 06:21:27;;;;;;;35.50;23.63;;;13.80;64.50;;;;;;5007686;28;20034;-73
2022/03/26 06:23:52;;;;;;;34.45;23.85;;;13.80;64.50;;;;;;5006832;28;20028;-72
2022/03/26 06:26:18;;;;;;;33.10;23.48;;;13.80;64.60;;;;;;5025369;28;20030;-72
2022/03/26 06:28:43;;;;;;;33.85;23.65;;;13.80;64.60;;;;;;5007279;28;20116;-72
2022/03/26 06:31:09;;;;;;;33.17;22.75;;;13.90;64.70;;;;;;5007361;28;20486;-73
2022/03/26 06:33:35;;;;;;;34.25;23.83;;;13.90;64.60;;;;;;5007490;28;20176;-72
2022/03/26 06:36:01;;;;;;;34.15;23.48;;;13.90;64.70;;;;;;5025196;28;20486;-72
2022/03/26 06:38:31;;;;;;;32.63;23.33;;;13.90;64.60;;;;;;5007167;28;20029;-73
2022/03/26 06:40:59;;;;;;;35.45;24.30;;;13.80;64.60;;;;;;5007353;28;20501;-73
2022/03/26 06:43:25;;;;;;;36.20;24.70;;;13.90;64.70;;;;;;5007359;28;20118;-72
2022/03/26 06:45:51;;;;;;;34.60;24.40;;;13.90;64.70;;;;;;5007217;28;20804;-72
2022/03/26 06:48:16;;;;;;;32.83;23.40;;;14.00;64.70;;;;;;5007198;28;20803;-73
2022/03/26 06:50:42;;;;;;;33.30;22.67;;;14.00;64.60;;;;;;5007137;28;20038;-73
2022/03/26 06:53:07;;;;;;;36.22;24.20;;;14.00;64.70;;;;;;5025058;28;20030;-72
2022/03/26 06:55:33;;;;;;;34.10;23.63;;;14.00;64.70;;;;;;5007341;28;20029;-72
2022/03/26 06:57:59;;;;;;;33.45;23.13;;;14.10;64.80;;;;;;5001430;28;20025;-73
2022/03/26 07:00:24;;;;;;;34.47;22.83;;;14.10;64.90;;;;;;5001718;28;20376;-74
2022/03/26 07:02:50;;;;;;;36.58;24.60;;;14.00;64.70;;;;;;5009312;28;20364;-72
2022/03/26 07:05:15;;;;;;;33.30;23.15;;;14.10;64.90;;;;;;4989575;28;20028;-72
2022/03/26 07:07:41;;;;;;;34.38;23.55;;;14.10;65.00;;;;;;4998987;28;20526;-72
2022/03/26 07:10:08;;;;;;;33.50;22.63;;;14.20;64.90;;;;;;4987674;28;20065;-73
2022/03/26 07:12:34;;;;;;;34.63;23.55;;;14.20;64.90;;;;;;4987505;28;20524;-72
2022/03/26 07:15:00;;;;;;;32.45;23.33;;;14.20;64.80;;;;;;5005209;28;20101;-73
2022/03/26 07:17:25;;;;;;;35.13;23.67;;;14.20;64.80;;;;;;4993776;28;20030;-71
2022/03/26 07:19:51;;;;;;;35.80;24.58;;;14.20;64.80;;;;;;5003311;28;20013;-72
2022/03/26 07:22:17;;;;;;;31.17;23.45;;;14.30;64.70;;;;;;4999577;28;20549;-73
2022/03/26 07:24:43;;;;;;;35.50;23.52;;;14.30;64.80;;;;;;4998612;28;20029;-72
2022/03/26 07:27:09;;;;;;;31.25;22.70;;;14.30;64.60;;;;;;5013753;28;20548;-73
2022/03/26 07:29:38;;;;;;;32.33;23.10;;;14.30;64.70;;;;;;5015971;28;20130;-73
2022/03/26 07:32:07;;;;;;;33.83;23.10;;;14.30;64.60;;;;;;5016961;28;21469;-72
2022/03/26 07:34:32;;;;;;;35.33;23.77;;;14.40;64.80;;;;;;5022086;28;20136;-72
2022/03/26 07:36:58;;;;;;;34.97;24.48;;;14.40;64.80;;;;;;5007114;28;20203;-73
2022/03/26 07:39:24;;;;;;;33.72;23.90;;;14.40;64.70;;;;;;4997829;28;20124;-73
2022/03/26 07:41:49;;;;;;;35.40;23.88;;;14.40;64.60;;;;;;5012399;28;20695;-72
2022/03/26 07:44:15;;;;;;;33.65;22.80;;;14.40;64.60;;;;;;5008058;28;20029;-72
2022/03/26 07:46:40;;;;;;;30.75;22.35;;;14.40;64.50;;;;;;4997996;28;20172;-72
2022/03/26 07:49:06;;;;;;;32.45;22.50;;;14.40;64.60;;;;;;5014643;28;20057;-73
2022/03/26 07:51:32;;;;;;;33.80;22.77;;;14.50;64.50;;;;;;4998932;28;20026;-72
2022/03/26 07:53:57;;;;;;;34.72;22.60;;;14.50;64.50;;;;;;4998856;28;20018;-73
2022/03/26 07:56:23;;;;;;;30.50;21.63;;;14.50;64.50;;;;;;5016235;28;20026;-72
2022/03/26 07:58:49;;;;;;;31.98;21.95;;;14.50;64.40;;;;;;5015109;28;20873;-72
2022/03/26 08:01:15;;;;;;;31.67;22.48;;;14.60;64.50;;;;;;5000377;28;20491;-72
2022/03/26 08:03:40;;;;;;;33.35;23.05;;;14.60;64.50;;;;;;5015309;28;20100;-71
2022/03/26 08:06:06;;;;;;;32.83;22.50;;;14.60;64.30;;;;;;5015428;28;20117;-71
2022/03/26 08:08:31;;;;;;;31.85;22.83;;;14.60;64.60;;;;;;5015227;28;20026;-73
2022/03/26 08:10:57;;;;;;;32.70;22.70;;;14.60;64.70;;;;;;4997251;28;20026;-72
2022/03/26 08:13:22;;;;;;;31.42;21.83;;;14.60;64.50;;;;;;4999493;28;20025;-71
2022/03/26 08:15:48;;;;;;;34.30;23.83;;;14.60;64.50;;;;;;4999380;28;20072;-71
2022/03/26 08:18:15;;;;;;;32.88;23.55;;;14.70;64.80;;;;;;4998459;28;20034;-71
2022/03/26 08:20:40;;;;;;;32.28;22.80;;;14.70;64.70;;;;;;4997184;28;20028;-75
2022/03/26 08:23:06;;;;;;;32.38;22.42;;;14.70;64.50;;;;;;4996554;28;20395;-72
2022/03/26 08:28:16;;;;;;;32.17;22.20;;;14.70;64.60;;;;;;5011397;28;20088;-72
2022/03/26 08:30:41;;;;;;;33.55;23.08;;;14.70;64.80;;;;;;5017816;28;20104;-73
2022/03/26 08:33:07;;;;;;;34.00;23.05;;;14.70;64.70;;;;;;5026736;28;20100;-72
2022/03/26 08:35:41;;;;;;;32.70;22.00;;;14.80;64.90;;;;;;5000659;28;20041;-73
2022/03/26 08:38:08;;;;;;;33.78;22.58;;;14.60;64.70;;;;;;5006579;28;20072;-72
2022/03/26 08:40:34;;;;;;;34.30;22.73;;;14.70;64.70;;;;;;4989462;28;20594;-73
2022/03/26 08:43:00;;;;;;;33.10;22.40;;;14.80;64.80;;;;;;5000874;28;20029;-73
2022/03/26 08:45:29;;;;;;;33.63;23.80;;;14.80;64.60;;;;;;5027139;28;20052;-73
2022/03/26 08:47:55;;;;;;;33.47;23.13;;;14.80;65.30;;;;;;5026448;28;20498;-72
2022/03/26 08:50:23;;;;;;;32.95;21.95;;;14.80;64.70;;;;;;5008277;28;20037;-73
2022/03/26 08:52:49;;;;;;;34.22;22.60;;;14.80;64.70;;;;;;5008347;28;20433;-72
2022/03/26 08:55:16;;;;;;;30.98;21.30;;;14.90;64.60;;;;;;5008895;28;20036;-72
2022/03/26 08:57:41;;;;;;;31.15;22.45;;;14.80;64.60;;;;;;5026355;28;20026;-72
2022/03/26 09:00:08;;;;;;;34.70;21.98;;;14.90;64.50;;;;;;5008544;28;20442;-72
2022/03/26 09:02:34;;;;;;;37.15;22.98;;;14.90;64.60;;;;;;5025221;28;20052;-73
2022/03/26 09:04:59;;;;;;;31.90;21.25;;;14.90;64.70;;;;;;5025425;28;20018;-72
2022/03/26 09:07:25;;;;;;;32.17;22.13;;;14.90;64.60;;;;;;5018825;28;20034;-72
2022/03/26 09:09:50;;;;;;;32.03;21.98;;;14.90;64.60;;;;;;5019717;28;20029;-73
2022/03/26 09:12:16;;;;;;;33.05;21.98;;;14.90;64.20;;;;;;5024598;28;20112;-72
2022/03/26 09:14:43;;;;;;;31.65;21.13;;;14.90;64.40;;;;;;4994372;28;20036;-73
2022/03/26 09:17:09;;;;;;;33.08;21.65;;;14.90;64.40;;;;;;5004216;28;20121;-73
2022/03/26 09:19:35;;;;;;;30.42;21.48;;;15.00;64.50;;;;;;5006263;28;20542;-71
2022/03/26 09:22:00;;;;;;;32.00;20.85;;;15.00;64.20;;;;;;5025531;28;20610;-73
2022/03/26 09:24:26;;;;;;;31.52;21.13;;;15.00;64.10;;;;;;5023959;28;20029;-72
2022/03/26 09:26:51;;;;;;;29.85;20.83;;;15.00;64.30;;;;;;5007241;28;20037;-73
2022/03/26 09:29:17;;;;;;;30.40;19.95;;;15.00;64.20;;;;;;5007762;28;20036;-72
2022/03/26 09:31:43;;;;;;;26.60;18.67;;;15.00;64.10;;;;;;5024826;28;20037;-73
2022/03/26 09:34:08;;;;;;;29.23;19.35;;;15.00;64.10;;;;;;5007500;28;20089;-72
2022/03/26 09:36:34;;;;;;;29.23;19.23;;;15.00;63.90;;;;;;5007031;28;20029;-74
2022/03/26 09:38:59;;;;;;;27.77;18.52;;;15.00;64.10;;;;;;5025295;28;20103;-74
2022/03/26 09:41:27;;;;;;;28.23;19.40;;;15.10;64.00;;;;;;5006888;28;20116;-74
2022/03/26 09:43:54;;;;;;;28.75;19.05;;;15.00;63.90;;;;;;5024403;28;20017;-72
2022/03/26 09:46:20;;;;;;;25.50;18.13;;;15.10;64.30;;;;;;5007037;28;20029;-72
2022/03/26 09:48:45;;;;;;;26.08;18.58;;;15.00;64.00;;;;;;5006735;28;20035;-72
2022/03/26 09:51:13;;;;;;;24.90;17.38;;;15.10;64.00;;;;;;5007134;28;20064;-73
2022/03/26 09:53:40;;;;;;;27.15;18.10;;;15.10;64.00;;;;;;5006896;28;20447;-72
2022/03/26 09:56:07;;;;;;;26.23;17.52;;;15.10;63.90;;;;;;5007102;28;20076;-73
2022/03/26 09:58:33;;;;;;;27.88;17.52;;;15.10;63.90;;;;;;5024278;28;20475;-73
2022/03/26 10:00:58;;;;;;;25.38;17.17;;;15.10;63.90;;;;;;5007019;28;20038;-77
2022/03/26 10:03:24;;;;;;;24.95;17.15;;;15.00;63.90;;;;;;5006896;28;20048;-73
2022/03/26 10:06:01;;;;;;;26.15;17.05;;;15.10;64.00;;;;;;5025830;28;20041;-75
2022/03/26 10:08:26;;;;;;;23.83;16.60;;;15.10;64.00;;;;;;4986976;28;20038;-72
2022/03/26 10:10:52;;;;;;;26.23;17.38;;;15.10;64.10;;;;;;5004989;28;20525;-71
2022/03/26 10:13:38;;;;;;;24.52;17.05;;;15.10;64.20;;;;;;5000750;28;20168;-71
2022/03/26 10:16:12;;;;;;;24.92;16.73;;;15.10;64.30;;;;;;5006246;28;20105;-72
2022/03/26 10:18:47;;;;;;;24.67;16.80;;;15.10;64.20;;;;;;5023360;28;20438;-73
2022/03/26 10:21:13;;;;;;;22.60;15.85;;;15.10;64.60;;;;;;5005138;28;20018;-74
2022/03/26 10:23:43;;;;;;;23.92;16.02;;;15.10;64.60;;;;;;5006082;28;20434;-72
2022/03/26 10:26:11;;;;;;;22.05;15.73;;;15.10;64.60;;;;;;5023873;28;20033;-73
2022/03/26 10:28:41;;;;;;;22.65;15.57;;;15.10;64.80;;;;;;5023051;28;20042;-73
2022/03/26 10:34:14;;;;;;;21.15;14.60;;;15.10;64.80;;;;;;5014722;28;20060;-72
2022/03/26 10:36:45;;;;;;;21.45;15.60;;;15.10;64.70;;;;;;5004202;28;20038;-71
2022/03/26 10:39:21;;;;;;;22.23;14.90;;;15.10;64.80;;;;;;5007078;28;20790;-72
2022/03/26 10:41:48;;;;;;;20.38;14.30;;;15.10;64.80;;;;;;5025122;28;20053;-76
2022/03/26 10:44:16;;;;;;;21.50;15.25;;;15.10;64.90;;;;;;5008464;28;20030;-71
2022/03/26 10:47:03;;;;;;;21.65;15.23;;;15.10;64.70;;;;;;5024535;28;20108;-71
2022/03/26 10:49:30;;;;;;;20.77;14.45;;;15.10;64.80;;;;;;5004209;28;20038;-71
2022/03/26 10:52:06;;;;;;;20.30;14.00;;;15.10;64.90;;;;;;4989004;28;20655;-71
2022/03/26 10:54:33;;;;;;;21.23;14.70;;;15.10;64.70;;;;;;5005573;28;20072;-71
2022/03/26 10:57:00;;;;;;;21.00;14.20;;;15.00;64.60;;;;;;5007889;28;20108;-73
2022/03/26 10:59:29;;;;;;;25.90;14.25;;;15.10;64.70;;;;;;5026336;28;20057;-73
2022/03/26 11:01:54;;;;;;;25.25;13.77;;;15.00;64.50;;;;;;5031365;28;20021;-78
2022/03/26 11:04:21;;;;;;;39.17;13.93;;;15.00;64.10;;;;;;5010758;28;20470;-71
2022/03/26 11:06:48;;;;;;;33.95;13.98;;;15.10;64.20;;;;;;5021646;28;20029;-71
2022/03/26 11:09:15;;;;;;;29.67;14.48;;;15.10;64.20;;;;;;5019297;28;20083;-71
2022/03/26 11:11:42;;;;;;;28.17;12.95;;;15.10;64.50;;;;;;5001419;28;20281;-71
2022/03/26 11:14:18;;;;;;;30.20;13.65;;;15.10;64.40;;;;;;5008866;28;20088;-72
2022/03/26 11:17:25;;;;;;;27.33;12.82;;;15.20;64.40;;;;;;5005012;28;20033;-71
2022/03/26 11:20:13;;;;;;;27.25;13.05;;;15.20;64.50;;;;;;4999867;28;20403;-73
2022/03/26 11:23:25;;;;;;;22.10;12.52;;;15.20;64.60;;;;;;4993838;28;20048;-74
2022/03/26 11:26:35;;;;;;;27.25;12.50;;;15.20;64.60;;;;;;4974121;28;20040;-72
2022/03/26 11:29:25;;;;;;;25.10;12.15;;;15.20;64.60;;;;;;5026925;28;20056;-74
2022/03/26 11:32:03;;;;;;;23.85;11.30;;;15.20;64.60;;;;;;5018726;28;20021;-74
2022/03/26 11:34:35;;;;;;;23.35;11.73;;;15.10;64.60;;;;;;5026629;28;20030;-72
2022/03/26 11:37:23;;;;;;;;;;;15.30;64.70;;;;;;5026407;28;20425;-75
2022/03/26 11:39:53;;;;;;;23.87;12.37;;;15.40;64.50;;;;;;4983371;28;19963;-72
2022/03/26 11:42:37;;;;;;;26.30;12.93;;;15.40;64.30;;;;;;4990292;28;20025;-74
2022/03/26 11:51:22;;;;;;;27.42;12.13;;;15.60;64.20;;;;;;4937613;28;20032;-72
2022/03/26 11:53:49;;;;;;;24.63;11.85;;;15.60;64.20;;;;;;5019381;28;20095;-70
2022/03/26 11:56:24;;;;;;;26.52;11.93;;;15.60;64.10;;;;;;5026324;28;20049;-71
2022/03/26 11:59:23;;;;;;;18.27;11.05;;;15.60;64.10;;;;;;5019658;28;20059;-75
2022/03/26 12:01:49;;;;;;;24.40;11.43;;;15.60;64.20;;;;;;5008771;28;20033;-72
2022/03/26 12:04:16;;;;;;;24.67;12.00;;;15.60;64.20;;;;;;5008538;28;20667;-73
2022/03/26 12:06:51;;;;;;;21.60;11.75;;;15.50;64.30;;;;;;5007595;28;20029;-72
2022/03/26 12:09:33;;;;;;;19.65;10.55;;;15.70;64.40;;;;;;5027071;28;20033;-73
2022/03/26 12:12:05;;;;;;;17.98;10.52;;;15.70;64.40;;;;;;5027384;28;20037;-75
2022/03/26 12:14:31;;;;;;;20.10;10.80;;;15.70;64.50;;;;;;5009243;28;20577;-73
2022/03/26 12:16:57;;;;;;;19.20;11.00;;;15.70;64.50;;;;;;5023818;28;20084;-73
2022/03/26 12:19:39;;;;;;;17.77;10.52;;;15.70;64.60;;;;;;5003459;28;20044;-71
2022/03/26 12:22:26;;;;;;;19.42;10.73;;;15.70;64.60;;;;;;5026533;28;20064;-75
2022/03/26 12:24:54;;;;;;;22.67;10.50;;;15.70;64.70;;;;;;5007308;28;20117;-75
2022/03/26 12:27:20;;;;;;;25.75;10.65;;;15.70;64.60;;;;;;5006280;28;20379;-74
2022/03/26 12:29:46;;;;;;;20.77;10.75;;;15.70;64.60;;;;;;5013104;28;20030;-74
2022/03/26 12:32:12;;;;;;;19.88;10.55;;;15.70;64.70;;;;;;5009308;28;20072;-73
2022/03/26 12:34:52;;;;;;;20.73;10.65;;;15.70;64.70;;;;;;5008101;28;20026;-79
2022/03/26 12:37:17;;;;;;;19.77;10.80;;;15.70;64.70;;;;;;5025734;28;20030;-73
2022/03/26 12:39:46;;;;;;;17.83;10.20;;;15.70;64.70;;;;;;5008273;28;20025;-75
2022/03/26 12:42:12;;;;;;;19.70;10.18;;;15.70;64.80;;;;;;5025687;28;20021;-75